createdAt,value
2023-08-30T00:01:49.103Z,13.94
2023-08-30T00:04:16.051Z,13.95
2023-08-30T00:06:43.466Z,13.98
2023-08-30T00:09:10.422Z,13.88
2023-08-30T00:11:37.596Z,13.91
2023-08-30T00:14:07.454Z,13.90
2023-08-30T00:16:35.140Z,13.78
2023-08-30T00:19:02.285Z,13.72
2023-08-30T00:21:29.851Z,13.60
2023-08-30T00:23:57.133Z,13.64
2023-08-30T00:26:24.695Z,13.72
2023-08-30T00:28:52.737Z,13.82
2023-08-30T00:31:20.093Z,13.95
2023-08-30T00:33:47.102Z,13.84
2023-08-30T00:36:14.404Z,13.93
2023-08-30T00:38:42.432Z,13.95
2023-08-30T00:41:10.457Z,14.02
2023-08-30T00:43:37.417Z,14.12
2023-08-30T00:46:04.781Z,14.07
2023-08-30T00:48:33.141Z,14.07
2023-08-30T00:51:00.246Z,14.17
2023-08-30T00:53:27.349Z,14.16
2023-08-30T00:55:54.339Z,14.21
2023-08-30T00:58:21.432Z,14.23
2023-08-30T01:00:49.392Z,14.18
2023-08-30T01:03:16.475Z,14.16
2023-08-30T01:05:43.896Z,14.15
2023-08-30T01:08:12.677Z,14.14
2023-08-30T01:11:05.005Z,14.12
2023-08-30T01:13:35.280Z,14.11
2023-08-30T01:16:05.594Z,14.17
2023-08-30T01:18:38.175Z,14.22
2023-08-30T01:21:06.950Z,14.16
2023-08-30T01:23:45.985Z,14.18
2023-08-30T01:26:17.303Z,14.17
2023-08-30T01:28:49.029Z,14.11
2023-08-30T01:31:16.527Z,14.01
2023-08-30T01:33:44.403Z,14.11
2023-08-30T01:36:11.537Z,14.01
2023-08-30T01:38:40.660Z,14.04
2023-08-30T01:41:08.799Z,14.04
2023-08-30T01:43:36.972Z,13.93
2023-08-30T01:46:05.801Z,13.88
2023-08-30T01:48:35.058Z,13.87
2023-08-30T01:51:03.790Z,13.88
2023-08-30T01:53:32.712Z,13.97
2023-08-30T01:56:00.958Z,13.98
2023-08-30T01:58:27.902Z,14.05
2023-08-30T02:00:54.967Z,14.11
2023-08-30T02:03:24.072Z,14.03
2023-08-30T02:06:15.987Z,13.91
2023-08-30T02:08:56.423Z,13.83
2023-08-30T02:11:28.756Z,13.67
2023-08-30T02:13:58.847Z,13.70
2023-08-30T02:16:28.114Z,13.76
2023-08-30T02:18:56.802Z,13.84
2023-08-30T02:21:24.006Z,13.77
2023-08-30T02:23:52.332Z,13.76
2023-08-30T02:26:20.717Z,13.71
2023-08-30T02:28:48.389Z,13.76
2023-08-30T02:31:15.659Z,13.75
2023-08-30T02:33:47.694Z,13.85
2023-08-30T02:36:14.666Z,13.86
2023-08-30T02:38:42.606Z,13.88
2023-08-30T02:41:11.527Z,13.89
2023-08-30T02:43:40.551Z,13.87
2023-08-30T02:46:10.144Z,13.70
2023-08-30T02:48:39.128Z,13.54
2023-08-30T02:51:09.476Z,13.45
2023-08-30T02:53:36.469Z,13.43
2023-08-30T02:56:03.610Z,13.37
2023-08-30T02:58:34.351Z,13.33
2023-08-30T03:01:04.242Z,13.20
2023-08-30T03:03:31.967Z,13.10
2023-08-30T03:05:59.360Z,13.04
2023-08-30T03:08:26.393Z,13.19
2023-08-30T03:10:53.523Z,13.07
2023-08-30T03:13:20.823Z,12.97
2023-08-30T03:15:52.169Z,13.04
2023-08-30T03:18:21.027Z,13.10
2023-08-30T03:20:48.885Z,13.08
2023-08-30T03:23:15.875Z,13.09
2023-08-30T03:25:42.857Z,13.09
2023-08-30T03:28:10.081Z,13.13
2023-08-30T03:30:37.485Z,13.04
2023-08-30T03:33:04.716Z,13.08
2023-08-30T03:35:35.367Z,13.10
2023-08-30T03:38:03.462Z,13.13
2023-08-30T03:40:31.496Z,13.16
2023-08-30T03:42:58.485Z,13.18
2023-08-30T03:45:25.647Z,13.18
2023-08-30T03:47:55.950Z,13.25
2023-08-30T03:50:23.887Z,13.33
2023-08-30T03:52:51.879Z,13.41
2023-08-30T03:55:19.243Z,13.42
2023-08-30T03:57:47.182Z,13.38
2023-08-30T04:00:15.765Z,13.33
2023-08-30T04:02:42.696Z,13.25
2023-08-30T04:05:10.504Z,13.15
2023-08-30T04:07:38.819Z,13.02
2023-08-30T04:10:08.452Z,13.08
2023-08-30T04:12:36.217Z,13.03
2023-08-30T04:15:11.471Z,13.06
2023-08-30T04:17:42.155Z,13.04
2023-08-30T04:20:09.323Z,12.96
2023-08-30T04:22:37.364Z,13.04
2023-08-30T04:25:06.390Z,13.20
2023-08-30T04:27:34.113Z,13.20
2023-08-30T04:30:01.187Z,13.25
2023-08-30T04:32:28.428Z,13.23
2023-08-30T04:34:58.482Z,13.30
2023-08-30T04:37:26.424Z,13.21
2023-08-30T04:39:53.487Z,13.25
2023-08-30T04:42:22.389Z,13.33
2023-08-30T04:44:49.858Z,13.35
2023-08-30T04:47:17.265Z,13.38
2023-08-30T04:49:44.917Z,13.35
2023-08-30T04:52:14.448Z,13.33
2023-08-30T04:54:43.031Z,13.30
2023-08-30T04:57:10.512Z,13.31
2023-08-30T04:59:37.568Z,13.20
2023-08-30T05:02:04.822Z,13.28
2023-08-30T05:04:34.744Z,13.24
2023-08-30T05:07:01.718Z,13.29
2023-08-30T05:09:29.184Z,13.37
2023-08-30T05:11:56.270Z,13.40
2023-08-30T05:14:23.362Z,13.34
2023-08-30T05:16:53.080Z,13.34
2023-08-30T05:19:20.578Z,13.35
2023-08-30T05:21:47.653Z,13.47
2023-08-30T05:24:14.807Z,13.51
2023-08-30T05:26:42.052Z,13.54
2023-08-30T05:29:09.117Z,13.58
2023-08-30T05:31:36.108Z,13.68
2023-08-30T05:34:22.216Z,13.55
2023-08-30T05:37:09.911Z,13.60
2023-08-30T05:39:55.823Z,13.72
2023-08-30T05:42:22.818Z,13.79
2023-08-30T05:44:50.012Z,13.83
2023-08-30T05:47:18.690Z,13.87
2023-08-30T05:49:46.966Z,13.76
2023-08-30T05:52:17.505Z,13.76
2023-08-30T05:54:44.430Z,13.73
2023-08-30T05:57:11.610Z,13.85
2023-08-30T05:59:38.570Z,13.82
2023-08-30T06:02:05.856Z,13.72
2023-08-30T06:04:33.059Z,13.66
2023-08-30T06:07:00.155Z,13.76
2023-08-30T06:09:27.146Z,13.71
2023-08-30T06:11:54.032Z,13.79
2023-08-30T06:14:21.307Z,13.79
2023-08-30T06:16:48.648Z,13.83
2023-08-30T06:19:15.758Z,13.90
2023-08-30T06:21:43.082Z,13.86
2023-08-30T06:24:10.144Z,13.96
2023-08-30T06:26:37.066Z,14.02
2023-08-30T06:29:05.426Z,14.14
2023-08-30T06:31:33.957Z,14.22
2023-08-30T06:34:01.203Z,14.28
2023-08-30T06:36:28.179Z,14.28
2023-08-30T06:38:56.269Z,14.40
2023-08-30T06:41:23.408Z,14.50
2023-08-30T06:43:50.390Z,14.59
2023-08-30T06:46:18.102Z,14.71
2023-08-30T06:48:46.320Z,14.73
2023-08-30T06:51:13.265Z,14.81
2023-08-30T06:53:40.265Z,14.89
2023-08-30T06:56:07.200Z,14.98
2023-08-30T06:58:37.020Z,14.94
2023-08-30T07:01:04.831Z,15.06
2023-08-30T07:03:35.476Z,15.10
2023-08-30T07:06:02.575Z,15.13
2023-08-30T07:08:30.754Z,15.23
2023-08-30T07:10:59.342Z,15.32
2023-08-30T07:13:26.280Z,15.33
2023-08-30T07:15:53.276Z,15.41
2023-08-30T07:18:20.289Z,15.42
2023-08-30T07:20:47.360Z,15.34
2023-08-30T07:23:15.159Z,15.32
2023-08-30T07:25:42.248Z,15.26
2023-08-30T07:28:09.931Z,15.19
2023-08-30T07:30:37.888Z,15.28
2023-08-30T07:33:06.086Z,15.41
2023-08-30T07:35:34.236Z,15.51
2023-08-30T07:38:01.246Z,15.55
2023-08-30T07:40:29.837Z,15.52
2023-08-30T07:42:59.836Z,15.59
2023-08-30T07:45:27.465Z,15.77
2023-08-30T07:47:54.623Z,15.81
2023-08-30T07:50:22.564Z,15.88
2023-08-30T07:52:49.475Z,15.92
2023-08-30T07:55:16.742Z,15.99
2023-08-30T07:57:45.044Z,16.05
2023-08-30T08:00:12.469Z,16.07
2023-08-30T08:02:46.234Z,16.09
2023-08-30T08:05:13.353Z,16.09
2023-08-30T08:07:42.084Z,16.14
2023-08-30T08:10:09.948Z,16.18
2023-08-30T08:12:37.059Z,16.22
2023-08-30T08:15:04.704Z,16.25
2023-08-30T08:17:31.659Z,16.40
2023-08-30T08:19:58.589Z,16.45
2023-08-30T08:22:28.525Z,16.50
2023-08-30T08:24:57.761Z,16.47
2023-08-30T08:27:26.552Z,16.54
2023-08-30T08:29:55.041Z,16.58
2023-08-30T08:32:22.508Z,16.58
2023-08-30T08:34:49.939Z,16.59
2023-08-30T08:37:17.581Z,16.65
2023-08-30T08:39:46.409Z,16.72
2023-08-30T08:42:13.587Z,16.75
2023-08-30T08:44:41.497Z,16.76
2023-08-30T08:47:08.775Z,16.67
2023-08-30T08:49:36.153Z,16.73
2023-08-30T08:52:12.189Z,16.76
2023-08-30T08:54:41.423Z,16.89
2023-08-30T08:57:09.258Z,16.82
2023-08-30T08:59:36.685Z,16.93
2023-08-30T09:02:04.083Z,16.98
2023-08-30T09:04:34.152Z,17.02
2023-08-30T09:07:01.685Z,16.95
2023-08-30T09:09:28.788Z,17.14
2023-08-30T09:11:56.038Z,17.09
2023-08-30T09:14:24.202Z,17.15
2023-08-30T09:17:04.449Z,17.20
2023-08-30T09:19:32.192Z,17.28
2023-08-30T09:22:00.370Z,17.52
2023-08-30T09:24:27.876Z,17.74
2023-08-30T09:26:57.675Z,17.77
2023-08-30T09:29:26.438Z,17.75
2023-08-30T09:31:56.902Z,17.84
2023-08-30T09:34:25.999Z,17.79
2023-08-30T09:36:55.207Z,17.77
2023-08-30T09:39:23.741Z,17.92
2023-08-30T09:41:52.058Z,18.12
2023-08-30T09:44:23.554Z,18.18
2023-08-30T09:46:55.184Z,17.93
2023-08-30T09:49:27.381Z,18.09
2023-08-30T09:51:56.868Z,18.09
2023-08-30T09:56:57.737Z,17.92
2023-08-30T09:59:25.827Z,17.95
2023-08-30T10:01:54.396Z,17.72
2023-08-30T10:04:23.334Z,17.71
2023-08-30T10:06:50.636Z,17.73
2023-08-30T10:09:20.297Z,17.95
2023-08-30T10:11:48.298Z,18.05
2023-08-30T10:14:15.842Z,18.09
2023-08-30T10:16:47.518Z,18.27
2023-08-30T10:19:26.320Z,18.33
2023-08-30T10:22:09.873Z,18.50
2023-08-30T10:25:10.597Z,18.52
2023-08-30T10:27:41.061Z,18.42
2023-08-30T10:30:09.227Z,18.62
2023-08-30T10:32:43.508Z,18.74
2023-08-30T10:35:15.740Z,18.65
2023-08-30T10:37:43.674Z,18.73
2023-08-30T10:40:11.496Z,18.88
2023-08-30T10:42:38.453Z,18.88
2023-08-30T10:47:39.868Z,19.00
2023-08-30T10:50:14.478Z,18.88
2023-08-30T10:52:42.115Z,18.81
2023-08-30T10:55:15.637Z,19.08
2023-08-30T10:57:45.576Z,18.90
2023-08-30T11:00:16.760Z,18.88
2023-08-30T11:02:49.753Z,19.16
2023-08-30T11:05:18.439Z,19.44
2023-08-30T11:07:46.823Z,19.56
2023-08-30T11:10:14.195Z,19.86
2023-08-30T11:12:42.530Z,19.83
2023-08-30T11:15:11.113Z,19.66
2023-08-30T11:17:38.662Z,19.61
2023-08-30T11:20:09.434Z,19.51
2023-08-30T11:22:41.432Z,19.55
2023-08-30T11:25:17.185Z,19.55
2023-08-30T11:27:44.450Z,19.61
2023-08-30T11:30:12.397Z,19.53
2023-08-30T11:32:41.442Z,19.62
2023-08-30T11:35:10.436Z,19.56
2023-08-30T11:37:37.848Z,19.63
2023-08-30T11:40:07.688Z,19.55
2023-08-30T11:42:35.337Z,19.43
2023-08-30T11:45:04.042Z,19.42
2023-08-30T11:47:31.558Z,19.63
2023-08-30T11:50:00.570Z,19.73
2023-08-30T11:52:28.541Z,19.62
2023-08-30T11:54:55.956Z,19.71
2023-08-30T11:57:22.914Z,19.88
2023-08-30T11:59:52.339Z,19.88
2023-08-30T12:02:19.979Z,20.00
2023-08-30T12:04:48.219Z,20.38
2023-08-30T12:07:25.636Z,20.25
2023-08-30T12:09:52.870Z,20.67
2023-08-30T12:12:20.732Z,20.70
2023-08-30T12:14:56.364Z,20.53
2023-08-30T12:17:23.430Z,20.36
2023-08-30T12:19:57.502Z,20.14
2023-08-30T12:22:40.661Z,19.90
2023-08-30T12:25:43.969Z,19.96
2023-08-30T12:28:11.578Z,19.91
2023-08-30T12:30:38.808Z,19.83
2023-08-30T12:33:05.995Z,19.84
2023-08-30T12:35:35.962Z,19.76
2023-08-30T12:38:02.972Z,19.72
2023-08-30T12:40:29.933Z,19.85
2023-08-30T12:42:56.837Z,19.99
2023-08-30T12:45:24.689Z,20.13
2023-08-30T12:47:51.623Z,20.17
2023-08-30T12:50:18.673Z,20.33
2023-08-30T12:52:46.842Z,20.40
2023-08-30T12:55:14.701Z,20.30
2023-08-30T12:57:41.707Z,20.46
2023-08-30T13:00:09.432Z,20.25
2023-08-30T13:02:36.562Z,19.84
2023-08-30T13:05:03.834Z,19.38
2023-08-30T13:07:35.076Z,19.24
2023-08-30T13:10:03.900Z,19.09
2023-08-30T13:12:30.945Z,19.11
2023-08-30T13:14:57.951Z,19.12
2023-08-30T13:17:24.950Z,18.90
2023-08-30T13:19:52.424Z,18.91
2023-08-30T13:22:20.985Z,18.78
2023-08-30T13:24:48.799Z,18.72
2023-08-30T13:27:17.157Z,18.71
2023-08-30T13:29:45.546Z,18.62
2023-08-30T13:32:12.812Z,18.62
2023-08-30T13:34:47.404Z,18.52
2023-08-30T13:37:14.718Z,18.48
2023-08-30T13:39:41.714Z,18.54
2023-08-30T13:42:09.083Z,18.65
2023-08-30T13:44:39.382Z,18.65
2023-08-30T13:47:06.466Z,18.68
2023-08-30T13:49:37.089Z,18.68
2023-08-30T13:52:04.373Z,18.68
2023-08-30T13:54:33.840Z,18.74
2023-08-30T13:57:00.854Z,18.89
2023-08-30T13:59:29.824Z,18.96
2023-08-30T14:01:58.635Z,19.06
2023-08-30T14:04:27.113Z,19.12
2023-08-30T14:06:54.902Z,19.31
2023-08-30T14:09:23.635Z,19.54
2023-08-30T14:11:52.355Z,19.76
2023-08-30T14:14:20.524Z,20.00
2023-08-30T14:16:49.290Z,20.30
2023-08-30T14:19:17.011Z,20.44
2023-08-30T14:21:46.748Z,20.64
2023-08-30T14:24:14.291Z,20.96
2023-08-30T14:26:42.773Z,21.11
2023-08-30T14:29:09.934Z,21.60
2023-08-30T14:31:37.838Z,22.29
2023-08-30T14:34:04.936Z,22.75
2023-08-30T14:36:31.925Z,22.78
2023-08-30T14:38:58.828Z,22.85
2023-08-30T14:41:26.141Z,23.45
2023-08-30T14:43:53.119Z,24.23
2023-08-30T14:46:24.334Z,24.77
2023-08-30T14:48:53.977Z,24.84
2023-08-30T14:51:23.022Z,24.93
2023-08-30T14:53:49.999Z,25.18
2023-08-30T14:56:19.216Z,25.73
2023-08-30T14:58:51.692Z,26.05
2023-08-30T15:01:18.719Z,25.29
2023-08-30T15:03:46.483Z,25.35
2023-08-30T15:06:13.422Z,25.26
2023-08-30T15:08:41.530Z,24.95
2023-08-30T15:11:09.820Z,25.09
2023-08-30T15:13:39.136Z,25.28
2023-08-30T15:16:06.622Z,25.35
2023-08-30T15:18:33.578Z,26.06
2023-08-30T15:21:01.230Z,26.53
2023-08-30T15:23:28.482Z,26.95
2023-08-30T15:25:55.480Z,27.18
2023-08-30T15:28:22.491Z,27.34
2023-08-30T15:30:52.181Z,27.51
2023-08-30T15:33:54.786Z,27.63
2023-08-30T15:36:06.999Z,27.29
2023-08-30T15:38:35.710Z,26.45
2023-08-30T15:41:07.850Z,25.90
2023-08-30T15:43:42.162Z,25.58
2023-08-30T15:46:12.540Z,25.33
2023-08-30T15:48:41.242Z,25.35
2023-08-30T15:51:20.568Z,25.19
2023-08-30T15:53:51.644Z,25.03
2023-08-30T15:56:18.664Z,24.79
2023-08-30T15:58:47.538Z,24.46
2023-08-30T16:01:18.298Z,24.04
2023-08-30T16:03:45.384Z,23.79
2023-08-30T16:06:12.427Z,23.34
2023-08-30T16:08:40.591Z,23.01
2023-08-30T16:11:07.544Z,22.93
2023-08-30T16:13:37.265Z,22.72
2023-08-30T16:16:04.809Z,22.49
2023-08-30T16:18:33.397Z,22.21
2023-08-30T16:21:00.325Z,21.96
2023-08-30T16:23:30.124Z,21.74
2023-08-30T16:26:00.481Z,21.62
2023-08-30T16:28:27.918Z,21.39
2023-08-30T16:31:06.326Z,21.25
2023-08-30T16:33:33.629Z,21.17
2023-08-30T16:36:04.041Z,21.07
2023-08-30T16:38:31.169Z,20.89
2023-08-30T16:41:03.734Z,20.97
2023-08-30T16:43:33.573Z,21.19
2023-08-30T16:46:00.509Z,21.54
2023-08-30T16:48:27.882Z,21.71
2023-08-30T16:50:55.096Z,22.02
2023-08-30T16:53:22.127Z,22.57
2023-08-30T16:55:49.671Z,22.93
2023-08-30T16:58:16.650Z,22.51
2023-08-30T17:00:45.144Z,22.39
2023-08-30T17:03:12.571Z,22.27
2023-08-30T17:05:41.351Z,21.79
2023-08-30T17:08:08.876Z,21.62
2023-08-30T17:10:38.466Z,21.23
2023-08-30T17:13:05.538Z,20.78
2023-08-30T17:15:33.056Z,20.43
2023-08-30T17:18:00.443Z,20.22
2023-08-30T17:20:27.370Z,20.03
2023-08-30T17:22:54.302Z,19.88
2023-08-30T17:25:21.370Z,19.71
2023-08-30T17:27:48.305Z,19.56
2023-08-30T17:30:17.610Z,19.36
2023-08-30T17:32:44.617Z,19.22
2023-08-30T17:35:11.805Z,19.15
2023-08-30T17:37:42.462Z,19.02
2023-08-30T17:40:10.858Z,18.92
2023-08-30T17:42:37.925Z,18.88
2023-08-30T17:45:19.850Z,18.74
2023-08-30T17:47:48.717Z,18.62
2023-08-30T17:50:16.788Z,18.51
2023-08-30T17:52:45.353Z,18.42
2023-08-30T17:55:17.140Z,18.30
2023-08-30T17:57:44.398Z,18.19
2023-08-30T18:00:15.562Z,18.16
2023-08-30T18:02:46.447Z,18.08
2023-08-30T18:05:14.915Z,18.03
2023-08-30T18:07:41.997Z,17.91
2023-08-30T18:10:09.254Z,17.87
2023-08-30T18:12:36.244Z,17.76
2023-08-30T18:15:04.165Z,17.72
2023-08-30T18:17:33.497Z,17.64
2023-08-30T18:20:01.527Z,17.50
2023-08-30T18:22:28.562Z,17.40
2023-08-30T18:24:56.333Z,17.37
2023-08-30T18:27:23.293Z,17.33
2023-08-30T18:29:51.250Z,17.31
2023-08-30T18:32:18.216Z,17.21
2023-08-30T18:34:45.481Z,17.09
2023-08-30T18:37:20.414Z,17.02
2023-08-30T18:39:47.673Z,16.92
2023-08-30T18:42:17.062Z,16.88
2023-08-30T18:44:45.391Z,16.81
2023-08-30T18:47:16.575Z,16.83
2023-08-30T18:49:45.141Z,16.79
2023-08-30T18:52:12.597Z,16.71
2023-08-30T18:54:44.950Z,16.72
2023-08-30T18:57:14.317Z,16.74
2023-08-30T18:59:43.953Z,16.67
2023-08-30T19:02:10.926Z,16.56
2023-08-30T19:04:37.965Z,16.47
2023-08-30T19:07:05.289Z,16.41
2023-08-30T19:09:37.308Z,16.36
2023-08-30T19:12:06.519Z,16.32
2023-08-30T19:14:33.724Z,16.31
2023-08-30T19:17:01.020Z,16.32
2023-08-30T19:19:29.267Z,16.29
2023-08-30T19:22:38.271Z,16.22
2023-08-30T19:25:06.695Z,16.18
2023-08-30T19:27:33.687Z,16.15
2023-08-30T19:30:00.987Z,16.17
2023-08-30T19:32:29.358Z,16.20
2023-08-30T19:34:56.305Z,16.19
2023-08-30T19:37:28.210Z,16.16
2023-08-30T19:39:55.454Z,16.08
2023-08-30T19:42:25.373Z,15.98
2023-08-30T19:44:59.818Z,16.03
2023-08-30T19:47:26.822Z,16.06
2023-08-30T19:49:54.186Z,16.04
2023-08-30T19:52:21.609Z,15.99
2023-08-30T19:54:49.423Z,16.02
2023-08-30T19:57:17.251Z,15.99
2023-08-30T19:59:45.870Z,15.97
2023-08-30T20:02:16.422Z,15.94
2023-08-30T20:04:44.220Z,15.93
2023-08-30T20:07:11.323Z,15.85
2023-08-30T20:09:39.076Z,15.83
2023-08-30T20:12:06.371Z,15.80
2023-08-30T20:14:36.009Z,15.71
2023-08-30T20:17:03.458Z,15.69
2023-08-30T20:19:31.209Z,15.79
2023-08-30T20:21:58.689Z,15.77
2023-08-30T20:24:27.215Z,15.74
2023-08-30T20:26:54.225Z,15.74
2023-08-30T20:29:24.681Z,15.75
2023-08-30T20:31:52.021Z,15.75
2023-08-30T20:34:21.221Z,15.70
2023-08-30T20:36:48.431Z,15.74
2023-08-30T20:39:16.599Z,15.70
2023-08-30T20:41:45.003Z,15.74
2023-08-30T20:44:12.023Z,15.68
2023-08-30T20:46:40.032Z,15.64
2023-08-30T20:49:08.433Z,15.64
2023-08-30T20:51:35.430Z,15.70
2023-08-30T20:54:02.424Z,15.60
2023-08-30T20:56:30.067Z,15.58
2023-08-30T20:59:02.601Z,15.53
2023-08-30T21:01:31.944Z,15.47
2023-08-30T21:03:59.093Z,15.50
2023-08-30T21:06:29.493Z,15.49
2023-08-30T21:09:16.432Z,15.49
2023-08-30T21:11:43.384Z,15.50
2023-08-30T21:14:15.356Z,15.53
2023-08-30T21:16:42.301Z,15.45
2023-08-30T21:19:09.325Z,15.39
2023-08-30T21:21:36.294Z,15.39
2023-08-30T21:24:05.374Z,15.34
2023-08-30T21:26:32.323Z,15.35
2023-08-30T21:28:59.258Z,15.31
2023-08-30T21:31:29.541Z,15.32
2023-08-30T21:33:59.450Z,15.29
2023-08-30T21:36:26.394Z,15.24
2023-08-30T21:38:57.985Z,15.25
2023-08-30T21:41:25.057Z,15.20
2023-08-30T21:43:53.744Z,15.20
2023-08-30T21:46:21.587Z,15.18
2023-08-30T21:48:49.647Z,15.20
2023-08-30T21:51:17.161Z,15.22
2023-08-30T21:53:46.333Z,15.23
2023-08-30T21:56:13.284Z,15.13
2023-08-30T21:58:40.233Z,15.14
2023-08-30T22:01:08.835Z,15.17
2023-08-30T22:03:36.383Z,15.15
2023-08-30T22:06:07.570Z,15.14
2023-08-30T22:08:34.619Z,14.94
2023-08-30T22:11:08.942Z,14.98
2023-08-30T22:13:37.252Z,15.01
2023-08-30T22:16:05.130Z,15.02
2023-08-30T22:18:33.101Z,14.99
2023-08-30T22:20:59.981Z,15.02
2023-08-30T22:23:26.930Z,14.96
2023-08-30T22:25:55.181Z,14.95
2023-08-30T22:28:24.231Z,14.97
2023-08-30T22:30:55.170Z,14.99
2023-08-30T22:33:23.360Z,15.03
2023-08-30T22:35:50.281Z,15.03
2023-08-30T22:38:17.623Z,15.08
2023-08-30T22:40:46.220Z,15.09
2023-08-30T22:43:13.467Z,15.12
2023-08-30T22:45:41.107Z,15.11
2023-08-30T22:48:08.174Z,15.17
2023-08-30T22:50:36.286Z,15.18
2023-08-30T22:53:03.268Z,15.15
2023-08-30T22:55:30.515Z,15.15
2023-08-30T22:57:57.467Z,15.22
2023-08-30T23:00:25.180Z,15.21
2023-08-30T23:02:52.168Z,15.18
2023-08-30T23:05:19.683Z,15.19
2023-08-30T23:07:47.990Z,15.17
2023-08-30T23:10:15.188Z,15.21
2023-08-30T23:12:42.466Z,15.23
2023-08-30T23:15:12.589Z,15.27
2023-08-30T23:17:46.774Z,15.22
2023-08-30T23:20:15.980Z,15.18
2023-08-30T23:22:43.306Z,15.22
2023-08-30T23:25:12.232Z,15.18
2023-08-30T23:27:39.490Z,15.19
2023-08-30T23:30:09.384Z,15.21
2023-08-30T23:32:37.175Z,15.23
2023-08-30T23:35:06.314Z,15.22
2023-08-30T23:37:33.725Z,15.21
2023-08-30T23:40:01.858Z,15.25
2023-08-30T23:42:29.019Z,15.28
2023-08-30T23:44:59.478Z,15.30
2023-08-30T23:47:28.556Z,15.27
2023-08-30T23:53:02.305Z,15.33
2023-08-30T23:55:30.833Z,15.30
2023-08-30T23:58:00.260Z,15.33
